Pagina principale
METAR-TAF:

METAR-TAF

Aeroporti :

Beauvechain, Belgio

latitudine: 50-45N, longitudine: 004-46E, altezza: 105 m

Osservazione

Il bollettino è stato emesso 38 minuti fa, alle 18:55 UTC
Vento 15 kt da ovest
Temperature 8°C
Umidità 93%
Pressione 1004 hPa
Visibilità: 5000 m
pioggia debole

METAR: EBBE 161855Z AUTO 27015KT 5000 -RA FEW009/// SCT013/// BKN016/// 08/07 Q1004 GRN

Ora: 20:33 (19:33 UTC)


TAF: mancante

Osservazioni e previsioni meteorologiche di più di 4000 aeroporti (messaggi METAR e TAF).

Le stazioni disponibili sono rappresentate dai dischi gialli e rossi sulla carta.

Puntare il mouse per vedere il nome della stazione.

Clicca sopra per visualizzare le osservazioni e previsioni meteorologiche.

Per cambiare la mappa : fare clic sui pulsanti verdi con una croce nera per ingrandire, il pulsante verde con un trattino per diminuire, o sulla freccia verde per le mappe adiacenti.


METAR-TAF: